M/V Chitochi — ZJL9931 — position and weather

sailwx.info

Track history (hours):
 
Tides and Currents Weather Stations Pressure Air Temp Water Temp Dewpoint Dewpoint Depression Visibility Wind Speed Wind Dir Waves Ship Positions

M/V Chitochi

Last reported at 2017-Nov-20 00:27 UTC. Time now 2017-Nov-20 13:25 UTC.
Position N 25°54' W 080°08'.

Type: Pleasure craft. MMSI: 378112918.

Date/timePositionNaut miles runAvg speedWind from/ knotsBaromVisibWave heightAir tempDewpointWater temp
2017-Nov-20 00:27N 25°54' W 080°08'0 0.0
2017-Nov-19 23:57N 25°54' W 080°08'0 0.0
2017-Nov-19 23:27N 25°54' W 080°08'0 0.0
2017-Nov-19 23:00N 25°54' W 080°08'0 0.0
2017-Nov-19 22:30N 25°54' W 080°08'0 0.0
2017-Nov-19 22:00N 25°54' W 080°08'0 0.0
2017-Nov-19 21:30N 25°54' W 080°08'0 0.0
2017-Nov-19 21:00N 25°54' W 080°08'0 0.0
2017-Nov-19 20:30N 25°54' W 080°08'0 0.0
2017-Nov-19 20:00N 25°54' W 080°08'610.2
2017-Nov-19 19:27N 25°59' W 080°08'6 8.6
2017-Nov-19 18:48N 25°54' W 080°08'0 0.0
2017-Nov-19 18:30N 25°54' W 080°08'0 0.0
2017-Nov-19 18:00N 25°54' W 080°08'0 0.0
2017-Nov-19 17:30N 25°54' W 080°08'0 0.0
2017-Nov-19 17:00N 25°54' W 080°08'0 0.0
2017-Nov-19 16:21N 25°54' W 080°08'0 0.0
2017-Nov-19 15:51N 25°54' W 080°08'0 0.0
2017-Nov-19 15:21N 25°54' W 080°08'0 0.0
2017-Nov-19 14:54N 25°54' W 080°08'0 0.0
2017-Nov-19 14:24N 25°54' W 080°08'0 0.0
2017-Nov-19 13:39N 25°54' W 080°08'0 0.0
2017-Nov-19 13:24N 25°54' W 080°08'0 0.0
2017-Nov-19 12:54N 25°54' W 080°08'0 0.0
2017-Nov-19 12:24N 25°54' W 080°08'0 0.0
2017-Nov-19 11:57N 25°54' W 080°08'0 0.0
2017-Nov-19 11:27N 25°54' W 080°08'0 0.0
2017-Nov-19 10:57N 25°54' W 080°08'0 0.0
2017-Nov-19 10:27N 25°54' W 080°08'0 0.0
2017-Nov-19 09:57N 25°54' W 080°08'0 0.0
2017-Nov-19 09:27N 25°54' W 080°08'0 0.0
2017-Nov-19 09:00N 25°54' W 080°08'0 0.0
2017-Nov-19 08:30N 25°54' W 080°08'0 0.0
2017-Nov-19 07:57N 25°54' W 080°08'0 0.0
2017-Nov-19 07:27N 25°54' W 080°08'0 0.0
2017-Nov-19 07:00N 25°54' W 080°08'0 0.0
2017-Nov-19 06:30N 25°54' W 080°08'0 0.0
2017-Nov-19 06:00N 25°54' W 080°08'0 0.0
2017-Nov-19 05:27N 25°54' W 080°08'0 0.0
2017-Nov-19 05:00N 25°54' W 080°08'0 0.0
2017-Nov-19 04:30N 25°54' W 080°08'0 0.0
2017-Nov-19 04:00N 25°54' W 080°08'0 0.0
2017-Nov-19 03:30N 25°54' W 080°08'0 0.0
2017-Nov-19 03:00N 25°54' W 080°08'0 0.0
2017-Nov-19 02:30N 25°54' W 080°08'0 0.0
2017-Nov-19 01:51N 25°54' W 080°08'0 0.0
2017-Nov-19 01:21N 25°54' W 080°08'0 0.0
2017-Nov-19 00:51N 25°54' W 080°08'0 0.0
2017-Nov-19 00:24N 25°54' W 080°08'0 0.0
2017-Nov-18 23:54N 25°54' W 080°08'0 0.0
2017-Nov-18 23:24N 25°54' W 080°08'0 0.0
2017-Nov-18 22:51N 25°54' W 080°08'0 0.0
2017-Nov-18 22:24N 25°54' W 080°08'0 0.0
2017-Nov-18 21:57N 25°54' W 080°08'0 0.0
2017-Nov-18 21:24N 25°54' W 080°08'0 0.0
2017-Nov-18 20:57N 25°54' W 080°08'0 0.8
2017-Nov-18 20:26N 25°54' W 080°07'919.3
2017-Nov-18 19:59N 25°51' W 079°58'5 0.8
2017-Nov-18 13:24N 25°51' W 079°53'819.8
2017-Nov-18 13:00N 25°52' W 080°02'6 9.5
2017-Nov-18 12:24N 25°54' W 080°08'0 0.0
2017-Nov-18 11:54N 25°54' W 080°08'0 0.0
2017-Nov-18 11:27N 25°54' W 080°08'0 0.0
2017-Nov-18 10:57N 25°54' W 080°08'0 0.0
2017-Nov-18 10:30N 25°54' W 080°08'0 0.0
2017-Nov-18 10:00N 25°54' W 080°08'0 0.0
2017-Nov-18 09:24N 25°54' W 080°08'0 0.0
2017-Nov-18 08:57N 25°54' W 080°08'0 0.0
2017-Nov-18 08:30N 25°54' W 080°08'0 0.0
2017-Nov-18 08:00N 25°54' W 080°08'0 0.0
2017-Nov-18 07:30N 25°54' W 080°08'0 0.0
2017-Nov-18 06:57N 25°54' W 080°08'0 0.0
2017-Nov-18 06:30N 25°54' W 080°08'0 0.0
2017-Nov-18 06:00N 25°54' W 080°08'0 0.0
2017-Nov-18 05:30N 25°54' W 080°08'0 0.0
2017-Nov-18 05:00N 25°54' W 080°08'0 0.0
2017-Nov-18 04:30N 25°54' W 080°08'0 0.0
2017-Nov-18 04:00N 25°54' W 080°08'0 0.0
2017-Nov-18 03:30N 25°54' W 080°08'0 0.0
2017-Nov-18 03:00N 25°54' W 080°08'0 0.0
2017-Nov-18 02:30N 25°54' W 080°08'0 0.0
2017-Nov-18 02:00N 25°54' W 080°08'0 0.0
2017-Nov-18 01:21N 25°54' W 080°08'0 0.0
2017-Nov-18 00:54N 25°54' W 080°08'0 0.0
2017-Nov-18 00:24N 25°54' W 080°08'0 0.0
2017-Nov-17 23:54N 25°54' W 080°08'0 0.0
2017-Nov-17 23:24N 25°54' W 080°08'0 0.0
2017-Nov-17 22:57N 25°54' W 080°08'0 0.0
2017-Nov-17 22:27N 25°54' W 080°08'0 0.0
2017-Nov-17 21:54N 25°54' W 080°08'0 0.0
2017-Nov-17 21:27N 25°54' W 080°08'0 0.0
2017-Nov-17 20:57N 25°54' W 080°08'0 0.0
2017-Nov-17 20:27N 25°54' W 080°08'0 0.0
2017-Nov-17 19:57N 25°54' W 080°08'0 0.0
2017-Nov-17 19:27N 25°54' W 080°08'0 0.0
2017-Nov-17 19:00N 25°54' W 080°08'0 0.0
2017-Nov-17 18:30N 25°54' W 080°08'0 0.0
2017-Nov-17 18:00N 25°54' W 080°08'0 0.0
2017-Nov-17 17:27N 25°54' W 080°08'0 0.0
2017-Nov-17 17:00N 25°54' W 080°08'0 0.0
2017-Nov-17 16:27N 25°54' W 080°08'0 0.0
2017-Nov-17 16:00N 25°54' W 080°08'0 0.0
2017-Nov-17 15:30N 25°54' W 080°08'0 0.0
2017-Nov-17 15:00N 25°54' W 080°08'0 0.0
2017-Nov-17 14:30N 25°54' W 080°08'0 0.0
2017-Nov-17 14:00N 25°54' W 080°08'0 0.0
2017-Nov-17 13:30N 25°54' W 080°08'0 0.0
2017-Nov-17 13:00N 25°54' W 080°08'0 0.0
2017-Nov-17 12:30N 25°54' W 080°08'0 0.0
2017-Nov-17 12:00N 25°54' W 080°08'0 0.0
2017-Nov-17 11:21N 25°54' W 080°08'0 0.0
2017-Nov-17 10:54N 25°54' W 080°08'0 0.0
2017-Nov-17 10:24N 25°54' W 080°08'0 0.0
2017-Nov-17 09:48N 25°54' W 080°08'0 0.0
2017-Nov-17 09:24N 25°54' W 080°08'0 0.0
2017-Nov-17 08:54N 25°54' W 080°08'0 0.0
2017-Nov-17 08:24N 25°54' W 080°08'0 0.0
2017-Nov-17 07:54N 25°54' W 080°08'0 0.0
2017-Nov-17 07:27N 25°54' W 080°08'0 0.0
2017-Nov-17 06:57N 25°54' W 080°08'0 0.0
2017-Nov-17 06:27N 25°54' W 080°08'0 0.0
2017-Nov-17 05:57N 25°54' W 080°08'0 0.0
2017-Nov-17 05:27N 25°54' W 080°08'0 0.0
2017-Nov-17 04:57N 25°54' W 080°08'0 0.0
2017-Nov-17 04:30N 25°54' W 080°08'0 0.0
2017-Nov-17 04:00N 25°54' W 080°08'0 0.0
2017-Nov-17 03:30N 25°54' W 080°08'0 0.0
2017-Nov-17 03:00N 25°54' W 080°08'0 0.0
2017-Nov-17 02:30N 25°54' W 080°08'0 0.0
2017-Nov-17 02:00N 25°54' W 080°08'0 0.0
2017-Nov-17 01:30N 25°54' W 080°08'0 0.0
2017-Nov-17 01:00N 25°54' W 080°08'0 0.0
2017-Nov-17 00:30N 25°54' W 080°08'0 0.0
2017-Nov-17 00:00N 25°54' W 080°08'0 0.0
2017-Nov-16 23:30N 25°54' W 080°08'0 0.0
2017-Nov-16 23:00N 25°54' W 080°08'0 0.0
2017-Nov-16 22:30N 25°54' W 080°08'0 0.0
2017-Nov-16 21:51N 25°54' W 080°08'0 0.0
2017-Nov-16 21:21N 25°54' W 080°08'0 0.0
2017-Nov-16 21:00N 25°54' W 080°08'0 0.0
2017-Nov-16 20:24N 25°54' W 080°08'0 0.0
2017-Nov-16 20:00N 25°54' W 080°08'0 0.0
2017-Nov-16 19:30N 25°54' W 080°08'0 0.0
2017-Nov-16 18:57N 25°54' W 080°08'0 0.0
2017-Nov-16 18:24N 25°54' W 080°08'0 0.0
2017-Nov-16 18:00N 25°54' W 080°08'0 0.0
2017-Nov-16 17:30N 25°54' W 080°08'0 0.0
2017-Nov-16 16:57N 25°54' W 080°08'0 0.0
2017-Nov-16 16:30N 25°54' W 080°08'0 0.0
2017-Nov-16 16:00N 25°54' W 080°08'0 0.0
2017-Nov-16 15:27N 25°54' W 080°08'0 0.0
2017-Nov-16 15:00N 25°54' W 080°08'0 0.0
2017-Nov-16 14:30N 25°54' W 080°08'0 0.0
2017-Nov-16 14:00N 25°54' W 080°08'0 0.0
2017-Nov-16 13:30N 25°54' W 080°08'0 0.0
2017-Nov-16 13:00N 25°54' W 080°08'0 0.0
2017-Nov-16 12:30N 25°54' W 080°08'0 0.0
2017-Nov-16 12:00N 25°54' W 080°08'0 0.0
2017-Nov-16 11:30N 25°54' W 080°08'0 0.0
2017-Nov-16 11:00N 25°54' W 080°08'0 0.0
2017-Nov-16 10:30N 25°54' W 080°08'0 0.0
2017-Nov-16 10:00N 25°54' W 080°08'0 0.0
2017-Nov-16 09:30N 25°54' W 080°08'0 0.0
2017-Nov-16 08:51N 25°54' W 080°08'0 0.0
2017-Nov-16 08:30N 25°54' W 080°08'0 0.0
2017-Nov-16 08:00N 25°54' W 080°08'0 0.0
2017-Nov-16 07:30N 25°54' W 080°08'0 0.0
2017-Nov-16 07:00N 25°54' W 080°08'0 0.0
2017-Nov-16 06:24N 25°54' W 080°08'0 0.0
2017-Nov-16 06:00N 25°54' W 080°08'0 0.0
2017-Nov-16 05:24N 25°54' W 080°08'0 0.0
2017-Nov-16 04:57N 25°54' W 080°08'0 0.0
2017-Nov-16 04:27N 25°54' W 080°08'0 0.0
2017-Nov-16 03:57N 25°54' W 080°08'0 0.0
2017-Nov-16 03:30N 25°54' W 080°08'0 0.0
2017-Nov-16 02:57N 25°54' W 080°08'0 0.0
2017-Nov-16 02:27N 25°54' W 080°08'0 0.0
2017-Nov-16 01:57N 25°54' W 080°08'0 0.0
2017-Nov-16 01:27N 25°54' W 080°08'0 0.0
2017-Nov-16 01:00N 25°54' W 080°08'0 0.0
2017-Nov-16 00:27N 25°54' W 080°08'0 0.0
2017-Nov-16 00:00N 25°54' W 080°08'0 0.0
2017-Nov-15 23:30N 25°54' W 080°08'0 0.0
2017-Nov-15 23:00N 25°54' W 080°08'0 0.0
2017-Nov-15 22:30N 25°54' W 080°08'0 0.0
2017-Nov-15 22:00N 25°54' W 080°08'0 0.0
2017-Nov-15 21:30N 25°54' W 080°08'0 0.0
2017-Nov-15 21:00N 25°54' W 080°08'0 0.0
2017-Nov-15 20:30N 25°54' W 080°08'0 0.0
2017-Nov-15 20:00N 25°54' W 080°08'0 0.0
2017-Nov-15 19:30N 25°54' W 080°08'0 0.0
2017-Nov-15 19:00N 25°54' W 080°08'0 0.0
2017-Nov-15 18:27N 25°54' W 080°08'0 0.0
2017-Nov-15 17:51N 25°54' W 080°08'0 0.0
2017-Nov-15 17:30N 25°54' W 080°08'0 0.0
2017-Nov-15 17:00N 25°54' W 080°08'0 0.0
2017-Nov-15 16:24N 25°54' W 080°08'0 0.0
2017-Nov-15 15:54N 25°54' W 080°08'0 0.0
2017-Nov-15 15:30N 25°54' W 080°08'0 0.0
2017-Nov-15 15:00N 25°54' W 080°08'0 0.0
2017-Nov-15 14:24N 25°54' W 080°08'0 0.0
2017-Nov-15 14:00N 25°54' W 080°08'0 0.0
2017-Nov-15 13:30N 25°54' W 080°08'0 0.0
2017-Nov-15 12:57N 25°54' W 080°08'0 0.0
2017-Nov-15 12:30N 25°54' W 080°08'0 0.0
2017-Nov-15 12:00N 25°54' W 080°08'0 0.0
2017-Nov-15 11:27N 25°54' W 080°08'0 0.0
2017-Nov-15 11:00N 25°54' W 080°08'0 0.0
2017-Nov-15 10:27N 25°54' W 080°08'0 0.0
2017-Nov-15 10:00N 25°54' W 080°08'0 0.0
2017-Nov-15 09:30N 25°54' W 080°08'0 0.0
2017-Nov-15 09:00N 25°54' W 080°08'0 0.0
2017-Nov-15 08:30N 25°54' W 080°08'0 0.0
2017-Nov-15 08:00N 25°54' W 080°08'0 0.0
2017-Nov-15 07:30N 25°54' W 080°08'0 0.0
2017-Nov-15 07:00N 25°54' W 080°08'0 0.0
2017-Nov-15 06:30N 25°54' W 080°08'0 0.0
2017-Nov-15 06:00N 25°54' W 080°08'0 0.0
2017-Nov-15 05:30N 25°54' W 080°08'0 0.0
2017-Nov-15 05:00N 25°54' W 080°08'0 0.0
2017-Nov-15 04:30N 25°54' W 080°08'0 0.0
2017-Nov-15 03:57N 25°54' W 080°08'0 0.0
2017-Nov-15 03:30N 25°54' W 080°08'0 0.0
2017-Nov-15 02:54N 25°54' W 080°08'0 0.0
2017-Nov-15 02:27N 25°54' W 080°08'0 0.0
2017-Nov-15 01:57N 25°54' W 080°08'0 0.0
2017-Nov-15 01:24N 25°54' W 080°08'0 0.0
2017-Nov-15 00:54N 25°54' W 080°08'0 0.0
2017-Nov-15 00:18N 25°54' W 080°08'0 0.0
2017-Nov-14 23:57N 25°54' W 080°08'0 0.0
2017-Nov-14 23:27N 25°54' W 080°08'0 0.0
2017-Nov-14 22:57N 25°54' W 080°08'0 0.0
2017-Nov-14 22:27N 25°54' W 080°08'0 0.0
2017-Nov-14 21:57N 25°54' W 080°08'0 0.0
2017-Nov-14 21:30N 25°54' W 080°08'0 0.0
2017-Nov-14 21:00N 25°54' W 080°08'0 0.0
2017-Nov-14 20:30N 25°54' W 080°08'0 0.0
2017-Nov-14 20:00N 25°54' W 080°08'0 0.0
2017-Nov-14 19:30N 25°54' W 080°08'0 0.0
2017-Nov-14 19:00N 25°54' W 080°08'0 0.0
2017-Nov-14 18:30N 25°54' W 080°08'0 0.0
2017-Nov-14 18:00N 25°54' W 080°08'0 0.0
2017-Nov-14 17:30N 25°54' W 080°08'0 0.0
2017-Nov-14 17:00N 25°54' W 080°08'0 0.0
2017-Nov-14 16:30N 25°54' W 080°08'0 0.0
2017-Nov-14 16:00N 25°54' W 080°08'0 0.0
2017-Nov-14 15:30N 25°54' W 080°08'0 0.0
2017-Nov-14 15:00N 25°54' W 080°08'0 0.0
2017-Nov-14 14:21N 25°54' W 080°08'0 0.0
2017-Nov-14 13:51N 25°54' W 080°08'0 0.0
2017-Nov-14 13:27N 25°54' W 080°08'0 0.0
2017-Nov-14 12:54N 25°54' W 080°08'0 0.0
2017-Nov-14 12:24N 25°54' W 080°08'0 0.0
2017-Nov-14 11:57N 25°54' W 080°08'0 0.0
2017-Nov-14 11:24N 25°54' W 080°08'0 0.0
2017-Nov-14 10:54N 25°54' W 080°08'0 0.0
2017-Nov-14 10:27N 25°54' W 080°08'0 0.0
2017-Nov-14 09:57N 25°54' W 080°08'0 0.0
2017-Nov-14 09:27N 25°54' W 080°08'0 0.0
2017-Nov-14 08:57N 25°54' W 080°08'0 0.0
2017-Nov-14 08:30N 25°54' W 080°08'0 0.0
2017-Nov-14 07:57N 25°54' W 080°08'0 0.0
2017-Nov-14 07:30N 25°54' W 080°08'0 0.0
2017-Nov-14 07:00N 25°54' W 080°08'0 0.0
2017-Nov-14 06:30N 25°54' W 080°08'0 0.0
2017-Nov-14 06:00N 25°54' W 080°08'0 0.0
2017-Nov-14 05:30N 25°54' W 080°08'0 0.0
2017-Nov-14 05:00N 25°54' W 080°08'0 0.0
2017-Nov-14 04:30N 25°54' W 080°08'0 0.0
2017-Nov-14 04:00N 25°54' W 080°08'0 0.0
2017-Nov-14 03:30N 25°54' W 080°08'0 0.0
2017-Nov-14 03:00N 25°54' W 080°08'0 0.0
2017-Nov-14 02:30N 25°54' W 080°08'0 0.0
2017-Nov-14 01:51N 25°54' W 080°08'0 0.0
2017-Nov-14 01:30N 25°54' W 080°08'0 0.0
2017-Nov-14 01:00N 25°54' W 080°08'0 0.0
2017-Nov-14 00:21N 25°54' W 080°08'0 0.0
2017-Nov-13 23:57N 25°54' W 080°08'0 0.0
2017-Nov-13 23:24N 25°54' W 080°08'0 0.0
2017-Nov-13 23:00N 25°54' W 080°08'0 0.0
2017-Nov-13 22:24N 25°54' W 080°08'0 0.0
2017-Nov-13 21:54N 25°54' W 080°08'0 0.0
2017-Nov-13 02:00N 25°54' W 080°08'0 0.0
2017-Nov-13 01:30N 25°54' W 080°08'0 0.0
2017-Nov-13 01:00N 25°54' W 080°08'0 0.0
2017-Nov-13 00:30N 25°54' W 080°08'0 0.0
2017-Nov-13 00:00N 25°54' W 080°08'0 0.0
2017-Nov-12 23:30N 25°54' W 080°08'0 0.0
2017-Nov-12 23:00N 25°54' W 080°08'0 0.0
2017-Nov-12 22:30N 25°54' W 080°08'0 0.0
2017-Nov-12 22:00N 25°54' W 080°08'0 0.0
2017-Nov-12 21:30N 25°54' W 080°08'0 0.0
2017-Nov-12 21:00N 25°54' W 080°08'0 0.0
2017-Nov-12 20:27N 25°54' W 080°08'0 0.0
2017-Nov-12 20:00N 25°54' W 080°08'0 0.0
2017-Nov-12 19:30N 25°54' W 080°08'0 0.0
2017-Nov-12 18:54N 25°54' W 080°08'0 0.0
2017-Nov-12 18:24N 25°54' W 080°08'0 0.0
2017-Nov-12 17:54N 25°54' W 080°08'0 0.0
2017-Nov-12 17:27N 25°54' W 080°08'0 0.0
2017-Nov-12 16:54N 25°54' W 080°08'0 0.0
2017-Nov-12 16:30N 25°54' W 080°08'0 0.0
2017-Nov-12 15:57N 25°54' W 080°08'0 0.0
2017-Nov-12 15:27N 25°54' W 080°08'0 0.0
2017-Nov-12 14:57N 25°54' W 080°08'0 0.0
2017-Nov-12 14:30N 25°54' W 080°08'0 0.0
2017-Nov-12 14:00N 25°54' W 080°08'0 0.0
2017-Nov-12 13:30N 25°54' W 080°08'0 0.0
2017-Nov-12 13:00N 25°54' W 080°08'0 0.0
2017-Nov-12 12:30N 25°54' W 080°08'0 0.0
2017-Nov-12 12:00N 25°54' W 080°08'0 0.0
2017-Nov-12 11:30N 25°54' W 080°08'0 0.0
2017-Nov-12 11:00N 25°54' W 080°08'0 0.0
2017-Nov-12 10:30N 25°54' W 080°08'0 0.0
2017-Nov-12 10:00N 25°54' W 080°08'0 0.0
2017-Nov-12 09:30N 25°54' W 080°08'0 0.0
2017-Nov-12 09:00N 25°54' W 080°08'0 0.0
2017-Nov-12 08:30N 25°54' W 080°08'0 0.0
2017-Nov-12 08:00N 25°54' W 080°08'0 0.0
2017-Nov-12 07:30N 25°54' W 080°08'0 0.0
2017-Nov-12 07:00N 25°54' W 080°08'0 0.0
2017-Nov-12 06:30N 25°54' W 080°08'0 0.0
2017-Nov-12 05:51N 25°54' W 080°08'0 0.0
2017-Nov-12 05:24N 25°54' W 080°08'0 0.0
2017-Nov-12 05:00N 25°54' W 080°08'0 0.0
2017-Nov-12 04:24N 25°54' W 080°08'0 0.0
2017-Nov-12 03:54N 25°54' W 080°08'0 0.0
2017-Nov-12 03:24N 25°54' W 080°08'0 0.0
2017-Nov-12 02:51N 25°54' W 080°08'0 0.0
2017-Nov-12 02:27N 25°54' W 080°08'0 0.0
2017-Nov-12 02:00N 25°54' W 080°08'0 0.0
2017-Nov-12 01:27N 25°54' W 080°08'0 0.0
2017-Nov-12 00:57N 25°54' W 080°08'0 0.0
2017-Nov-12 00:27N 25°54' W 080°08'0 0.0
2017-Nov-12 00:00N 25°54' W 080°08'0 0.0
2017-Nov-11 23:30N 25°54' W 080°08'0 0.0
2017-Nov-11 23:00N 25°54' W 080°08'0 0.0
2017-Nov-11 22:30N 25°54' W 080°08'0 0.0
2017-Nov-11 22:00N 25°54' W 080°08'0 0.0
2017-Nov-11 21:30N 25°54' W 080°08'0 0.0
2017-Nov-11 20:57N 25°54' W 080°08'0 0.0
2017-Nov-11 20:30N 25°54' W 080°08'0 0.0
2017-Nov-11 20:00N 25°54' W 080°08'0 0.0
2017-Nov-11 19:30N 25°54' W 080°08'0 0.0
2017-Nov-11 19:00N 25°54' W 080°08'0 0.0
2017-Nov-11 18:30N 25°54' W 080°08'0 0.0
2017-Nov-11 18:00N 25°54' W 080°08'0 0.0
2017-Nov-11 17:30N 25°54' W 080°08'0 0.0
2017-Nov-11 16:51N 25°54' W 080°08'0 0.0
2017-Nov-11 16:21N 25°54' W 080°08'0 0.0
2017-Nov-11 16:00N 25°54' W 080°08'0 0.0
2017-Nov-11 15:24N 25°54' W 080°08'0 0.0
2017-Nov-11 14:54N 25°54' W 080°08'0 0.0
2017-Nov-11 14:30N 25°54' W 080°08'0 0.0
2017-Nov-11 14:00N 25°54' W 080°08'0 0.0
2017-Nov-11 13:24N 25°54' W 080°08'0 0.0
2017-Nov-11 12:57N 25°54' W 080°08'0 0.0
2017-Nov-11 12:30N 25°54' W 080°08'0 0.0
2017-Nov-11 12:00N 25°54' W 080°08'0 0.0
2017-Nov-11 11:27N 25°54' W 080°08'0 0.0
2017-Nov-11 11:00N 25°54' W 080°08'0 0.0
2017-Nov-11 10:30N 25°54' W 080°08'0 0.0
2017-Nov-11 10:00N 25°54' W 080°08'0 0.0
2017-Nov-11 09:30N 25°54' W 080°08'0 0.0
2017-Nov-11 09:00N 25°54' W 080°08'0 0.0
2017-Nov-11 08:30N 25°54' W 080°08'0 0.0
2017-Nov-11 08:00N 25°54' W 080°08'0 0.0
2017-Nov-11 07:30N 25°54' W 080°08'0 0.0
2017-Nov-11 07:00N 25°54' W 080°08'0 0.0
2017-Nov-11 06:30N 25°54' W 080°08'0 0.0
2017-Nov-11 06:00N 25°54' W 080°08'0 0.0
2017-Nov-11 05:30N 25°54' W 080°08'0 0.0
2017-Nov-11 05:00N 25°54' W 080°08'0 0.0
2017-Nov-11 04:21N 25°54' W 080°08'0 0.0
2017-Nov-11 04:00N 25°54' W 080°08'0 0.0
2017-Nov-11 03:30N 25°54' W 080°08'0 0.0
2017-Nov-11 02:54N 25°54' W 080°08'0 0.0
2017-Nov-11 02:24N 25°54' W 080°08'0 0.0
2017-Nov-11 02:00N 25°54' W 080°08'0 0.0
2017-Nov-11 01:30N 25°54' W 080°08'0 0.0
2017-Nov-11 01:00N 25°54' W 080°08'0 0.0
2017-Nov-11 00:24N 25°54' W 080°08'0 0.0
2017-Nov-10 23:54N 25°54' W 080°08'0 0.0
2017-Nov-10 23:24N 25°54' W 080°08'0 0.0
2017-Nov-10 22:57N 25°54' W 080°08'0 0.0
2017-Nov-10 22:27N 25°54' W 080°08'0 0.0
2017-Nov-10 22:00N 25°54' W 080°08'0 0.0
2017-Nov-10 21:30N 25°54' W 080°08'0 0.0
2017-Nov-10 20:57N 25°54' W 080°08'0 0.0
2017-Nov-10 20:27N 25°54' W 080°08'0 0.0
2017-Nov-10 20:00N 25°54' W 080°08'0 0.0
2017-Nov-10 19:30N 25°54' W 080°08'0 0.0
2017-Nov-10 19:00N 25°54' W 080°08'0 0.0
2017-Nov-10 18:30N 25°54' W 080°08'0 0.0
2017-Nov-10 18:00N 25°54' W 080°08'0 0.0
2017-Nov-10 17:30N 25°54' W 080°08'0 0.0
2017-Nov-10 16:57N 25°54' W 080°08'0 0.0
2017-Nov-10 16:30N 25°54' W 080°08'0 0.0
2017-Nov-10 16:00N 25°54' W 080°08'0 0.0
2017-Nov-10 15:30N 25°54' W 080°08'0 0.0
2017-Nov-10 15:00N 25°54' W 080°08'0 0.0
2017-Nov-10 14:30N 25°54' W 080°08'0 0.0
2017-Nov-10 14:00N 25°54' W 080°08'0 0.0
2017-Nov-10 13:21N 25°54' W 080°08'0 0.0
2017-Nov-10 12:51N 25°54' W 080°08'0 0.0
2017-Nov-10 12:21N 25°54' W 080°08'0 0.0
2017-Nov-10 12:00N 25°54' W 080°08'0 0.0
2017-Nov-10 11:24N 25°54' W 080°08'0 0.0
2017-Nov-10 10:54N 25°54' W 080°08'0 0.0
2017-Nov-10 10:24N 25°54' W 080°08'0 0.0
2017-Nov-10 09:54N 25°54' W 080°08'0 0.0
2017-Nov-10 09:24N 25°54' W 080°08'0 0.0
2017-Nov-10 08:57N 25°54' W 080°08'0 0.0
2017-Nov-10 08:27N 25°54' W 080°08'0 0.0
2017-Nov-10 07:57N 25°54' W 080°08'0 0.0
2017-Nov-10 07:27N 25°54' W 080°08'0 0.0
2017-Nov-10 06:57N 25°54' W 080°08'0 0.0
2017-Nov-10 06:27N 25°54' W 080°08'0 0.0
2017-Nov-10 06:00N 25°54' W 080°08'0 0.0
2017-Nov-10 05:30N 25°54' W 080°08'0 0.0
2017-Nov-10 04:45N 25°54' W 080°08'0 0.0
2017-Nov-10 04:27N 25°54' W 080°08'0 0.0
2017-Nov-10 04:00N 25°54' W 080°08'0 0.0
2017-Nov-10 03:27N 25°54' W 080°08'0 0.0
2017-Nov-10 03:00N 25°54' W 080°08'0 0.0
2017-Nov-10 02:30N 25°54' W 080°08'0 0.0
2017-Nov-10 02:00N 25°54' W 080°08'0 0.0
2017-Nov-10 01:30N 25°54' W 080°08'0 0.0
2017-Nov-10 01:00N 25°54' W 080°08'0 0.0
2017-Nov-10 00:30N 25°54' W 080°08'  
Track history (hours):
 
Tides and Currents Weather Stations Pressure Air Temp Water Temp Dewpoint Dewpoint Depression Visibility Wind Speed Wind Dir Waves Ship Positions

M/V Chitochi

Last reported at 2017-Nov-20 00:27 UTC. Time now 2017-Nov-20 13:25 UTC.
Position N 25°54' W 080°08'.

Type: Pleasure craft. MMSI: 378112918.

Date/timePositionNaut miles runAvg speedWind from/ knotsBaromVisibWave heightAir tempDewpointWater temp
2017-Nov-20 00:27N 25°54' W 080°08'0 0.0
2017-Nov-19 23:57N 25°54' W 080°08'0 0.0
2017-Nov-19 23:27N 25°54' W 080°08'0 0.0
2017-Nov-19 23:00N 25°54' W 080°08'0 0.0
2017-Nov-19 22:30N 25°54' W 080°08'0 0.0
2017-Nov-19 22:00N 25°54' W 080°08'0 0.0
2017-Nov-19 21:30N 25°54' W 080°08'0 0.0
2017-Nov-19 21:00N 25°54' W 080°08'0 0.0
2017-Nov-19 20:30N 25°54' W 080°08'0 0.0
2017-Nov-19 20:00N 25°54' W 080°08'610.2
2017-Nov-19 19:27N 25°59' W 080°08'6 8.6
2017-Nov-19 18:48N 25°54' W 080°08'0 0.0
2017-Nov-19 18:30N 25°54' W 080°08'0 0.0
2017-Nov-19 18:00N 25°54' W 080°08'0 0.0
2017-Nov-19 17:30N 25°54' W 080°08'0 0.0
2017-Nov-19 17:00N 25°54' W 080°08'0 0.0
2017-Nov-19 16:21N 25°54' W 080°08'0 0.0
2017-Nov-19 15:51N 25°54' W 080°08'0 0.0
2017-Nov-19 15:21N 25°54' W 080°08'0 0.0
2017-Nov-19 14:54N 25°54' W 080°08'0 0.0
2017-Nov-19 14:24N 25°54' W 080°08'0 0.0
2017-Nov-19 13:39N 25°54' W 080°08'0 0.0
2017-Nov-19 13:24N 25°54' W 080°08'0 0.0
2017-Nov-19 12:54N 25°54' W 080°08'0 0.0
2017-Nov-19 12:24N 25°54' W 080°08'0 0.0
2017-Nov-19 11:57N 25°54' W 080°08'0 0.0
2017-Nov-19 11:27N 25°54' W 080°08'0 0.0
2017-Nov-19 10:57N 25°54' W 080°08'0 0.0
2017-Nov-19 10:27N 25°54' W 080°08'0 0.0
2017-Nov-19 09:57N 25°54' W 080°08'0 0.0
2017-Nov-19 09:27N 25°54' W 080°08'0 0.0
2017-Nov-19 09:00N 25°54' W 080°08'0 0.0
2017-Nov-19 08:30N 25°54' W 080°08'0 0.0
2017-Nov-19 07:57N 25°54' W 080°08'0 0.0
2017-Nov-19 07:27N 25°54' W 080°08'0 0.0
2017-Nov-19 07:00N 25°54' W 080°08'0 0.0
2017-Nov-19 06:30N 25°54' W 080°08'0 0.0
2017-Nov-19 06:00N 25°54' W 080°08'0 0.0
2017-Nov-19 05:27N 25°54' W 080°08'0 0.0
2017-Nov-19 05:00N 25°54' W 080°08'0 0.0
2017-Nov-19 04:30N 25°54' W 080°08'0 0.0
2017-Nov-19 04:00N 25°54' W 080°08'0 0.0
2017-Nov-19 03:30N 25°54' W 080°08'0 0.0
2017-Nov-19 03:00N 25°54' W 080°08'0 0.0
2017-Nov-19 02:30N 25°54' W 080°08'0 0.0
2017-Nov-19 01:51N 25°54' W 080°08'0 0.0
2017-Nov-19 01:21N 25°54' W 080°08'0 0.0
2017-Nov-19 00:51N 25°54' W 080°08'0 0.0
2017-Nov-19 00:24N 25°54' W 080°08'0 0.0
2017-Nov-18 23:54N 25°54' W 080°08'0 0.0
2017-Nov-18 23:24N 25°54' W 080°08'0 0.0
2017-Nov-18 22:51N 25°54' W 080°08'0 0.0
2017-Nov-18 22:24N 25°54' W 080°08'0 0.0
2017-Nov-18 21:57N 25°54' W 080°08'0 0.0
2017-Nov-18 21:24N 25°54' W 080°08'0 0.0
2017-Nov-18 20:57N 25°54' W 080°08'0 0.8
2017-Nov-18 20:26N 25°54' W 080°07'919.3
2017-Nov-18 19:59N 25°51' W 079°58'5 0.8
2017-Nov-18 13:24N 25°51' W 079°53'819.8
2017-Nov-18 13:00N 25°52' W 080°02'6 9.5
2017-Nov-18 12:24N 25°54' W 080°08'0 0.0
2017-Nov-18 11:54N 25°54' W 080°08'0 0.0
2017-Nov-18 11:27N 25°54' W 080°08'0 0.0
2017-Nov-18 10:57N 25°54' W 080°08'0 0.0
2017-Nov-18 10:30N 25°54' W 080°08'0 0.0
2017-Nov-18 10:00N 25°54' W 080°08'0 0.0
2017-Nov-18 09:24N 25°54' W 080°08'0 0.0
2017-Nov-18 08:57N 25°54' W 080°08'0 0.0
2017-Nov-18 08:30N 25°54' W 080°08'0 0.0
2017-Nov-18 08:00N 25°54' W 080°08'0 0.0
2017-Nov-18 07:30N 25°54' W 080°08'0 0.0
2017-Nov-18 06:57N 25°54' W 080°08'0 0.0
2017-Nov-18 06:30N 25°54' W 080°08'0 0.0
2017-Nov-18 06:00N 25°54' W 080°08'0 0.0
2017-Nov-18 05:30N 25°54' W 080°08'0 0.0
2017-Nov-18 05:00N 25°54' W 080°08'0 0.0
2017-Nov-18 04:30N 25°54' W 080°08'0 0.0
2017-Nov-18 04:00N 25°54' W 080°08'0 0.0
2017-Nov-18 03:30N 25°54' W 080°08'0 0.0
2017-Nov-18 03:00N 25°54' W 080°08'0 0.0
2017-Nov-18 02:30N 25°54' W 080°08'0 0.0
2017-Nov-18 02:00N 25°54' W 080°08'0 0.0
2017-Nov-18 01:21N 25°54' W 080°08'0 0.0
2017-Nov-18 00:54N 25°54' W 080°08'0 0.0
2017-Nov-18 00:24N 25°54' W 080°08'0 0.0
2017-Nov-17 23:54N 25°54' W 080°08'0 0.0
2017-Nov-17 23:24N 25°54' W 080°08'0 0.0
2017-Nov-17 22:57N 25°54' W 080°08'0 0.0
2017-Nov-17 22:27N 25°54' W 080°08'0 0.0
2017-Nov-17 21:54N 25°54' W 080°08'0 0.0
2017-Nov-17 21:27N 25°54' W 080°08'0 0.0
2017-Nov-17 20:57N 25°54' W 080°08'0 0.0
2017-Nov-17 20:27N 25°54' W 080°08'0 0.0
2017-Nov-17 19:57N 25°54' W 080°08'0 0.0
2017-Nov-17 19:27N 25°54' W 080°08'0 0.0
2017-Nov-17 19:00N 25°54' W 080°08'0 0.0
2017-Nov-17 18:30N 25°54' W 080°08'0 0.0
2017-Nov-17 18:00N 25°54' W 080°08'0 0.0
2017-Nov-17 17:27N 25°54' W 080°08'0 0.0
2017-Nov-17 17:00N 25°54' W 080°08'0 0.0
2017-Nov-17 16:27N 25°54' W 080°08'0 0.0
2017-Nov-17 16:00N 25°54' W 080°08'0 0.0
2017-Nov-17 15:30N 25°54' W 080°08'0 0.0
2017-Nov-17 15:00N 25°54' W 080°08'0 0.0
2017-Nov-17 14:30N 25°54' W 080°08'0 0.0
2017-Nov-17 14:00N 25°54' W 080°08'0 0.0
2017-Nov-17 13:30N 25°54' W 080°08'0 0.0
2017-Nov-17 13:00N 25°54' W 080°08'0 0.0
2017-Nov-17 12:30N 25°54' W 080°08'0 0.0
2017-Nov-17 12:00N 25°54' W 080°08'0 0.0
2017-Nov-17 11:21N 25°54' W 080°08'0 0.0
2017-Nov-17 10:54N 25°54' W 080°08'0 0.0
2017-Nov-17 10:24N 25°54' W 080°08'0 0.0
2017-Nov-17 09:48N 25°54' W 080°08'0 0.0
2017-Nov-17 09:24N 25°54' W 080°08'0 0.0
2017-Nov-17 08:54N 25°54' W 080°08'0 0.0
2017-Nov-17 08:24N 25°54' W 080°08'0 0.0
2017-Nov-17 07:54N 25°54' W 080°08'0 0.0
2017-Nov-17 07:27N 25°54' W 080°08'0 0.0
2017-Nov-17 06:57N 25°54' W 080°08'0 0.0
2017-Nov-17 06:27N 25°54' W 080°08'0 0.0
2017-Nov-17 05:57N 25°54' W 080°08'0 0.0
2017-Nov-17 05:27N 25°54' W 080°08'0 0.0
2017-Nov-17 04:57N 25°54' W 080°08'0 0.0
2017-Nov-17 04:30N 25°54' W 080°08'0 0.0
2017-Nov-17 04:00N 25°54' W 080°08'0 0.0
2017-Nov-17 03:30N 25°54' W 080°08'0 0.0
2017-Nov-17 03:00N 25°54' W 080°08'0 0.0
2017-Nov-17 02:30N 25°54' W 080°08'0 0.0
2017-Nov-17 02:00N 25°54' W 080°08'0 0.0
2017-Nov-17 01:30N 25°54' W 080°08'0 0.0
2017-Nov-17 01:00N 25°54' W 080°08'0 0.0
2017-Nov-17 00:30N 25°54' W 080°08'0 0.0
2017-Nov-17 00:00N 25°54' W 080°08'0 0.0
2017-Nov-16 23:30N 25°54' W 080°08'0 0.0
2017-Nov-16 23:00N 25°54' W 080°08'0 0.0
2017-Nov-16 22:30N 25°54' W 080°08'0 0.0
2017-Nov-16 21:51N 25°54' W 080°08'0 0.0
2017-Nov-16 21:21N 25°54' W 080°08'0 0.0
2017-Nov-16 21:00N 25°54' W 080°08'0 0.0
2017-Nov-16 20:24N 25°54' W 080°08'0 0.0
2017-Nov-16 20:00N 25°54' W 080°08'0 0.0
2017-Nov-16 19:30N 25°54' W 080°08'0 0.0
2017-Nov-16 18:57N 25°54' W 080°08'0 0.0
2017-Nov-16 18:24N 25°54' W 080°08'0 0.0
2017-Nov-16 18:00N 25°54' W 080°08'0 0.0
2017-Nov-16 17:30N 25°54' W 080°08'0 0.0
2017-Nov-16 16:57N 25°54' W 080°08'0 0.0
2017-Nov-16 16:30N 25°54' W 080°08'0 0.0
2017-Nov-16 16:00N 25°54' W 080°08'0 0.0
2017-Nov-16 15:27N 25°54' W 080°08'0 0.0
2017-Nov-16 15:00N 25°54' W 080°08'0 0.0
2017-Nov-16 14:30N 25°54' W 080°08'0 0.0
2017-Nov-16 14:00N 25°54' W 080°08'0 0.0
2017-Nov-16 13:30N 25°54' W 080°08'0 0.0
2017-Nov-16 13:00N 25°54' W 080°08'0 0.0
2017-Nov-16 12:30N 25°54' W 080°08'0 0.0
2017-Nov-16 12:00N 25°54' W 080°08'0 0.0
2017-Nov-16 11:30N 25°54' W 080°08'0 0.0
2017-Nov-16 11:00N 25°54' W 080°08'0 0.0
2017-Nov-16 10:30N 25°54' W 080°08'0 0.0
2017-Nov-16 10:00N 25°54' W 080°08'0 0.0
2017-Nov-16 09:30N 25°54' W 080°08'0 0.0
2017-Nov-16 08:51N 25°54' W 080°08'0 0.0
2017-Nov-16 08:30N 25°54' W 080°08'0 0.0
2017-Nov-16 08:00N 25°54' W 080°08'0 0.0
2017-Nov-16 07:30N 25°54' W 080°08'0 0.0
2017-Nov-16 07:00N 25°54' W 080°08'0 0.0
2017-Nov-16 06:24N 25°54' W 080°08'0 0.0
2017-Nov-16 06:00N 25°54' W 080°08'0 0.0
2017-Nov-16 05:24N 25°54' W 080°08'0 0.0
2017-Nov-16 04:57N 25°54' W 080°08'0 0.0
2017-Nov-16 04:27N 25°54' W 080°08'0 0.0
2017-Nov-16 03:57N 25°54' W 080°08'0 0.0
2017-Nov-16 03:30N 25°54' W 080°08'0 0.0
2017-Nov-16 02:57N 25°54' W 080°08'0 0.0
2017-Nov-16 02:27N 25°54' W 080°08'0 0.0
2017-Nov-16 01:57N 25°54' W 080°08'0 0.0
2017-Nov-16 01:27N 25°54' W 080°08'0 0.0
2017-Nov-16 01:00N 25°54' W 080°08'0 0.0
2017-Nov-16 00:27N 25°54' W 080°08'0 0.0
2017-Nov-16 00:00N 25°54' W 080°08'0 0.0
2017-Nov-15 23:30N 25°54' W 080°08'0 0.0
2017-Nov-15 23:00N 25°54' W 080°08'0 0.0
2017-Nov-15 22:30N 25°54' W 080°08'0 0.0
2017-Nov-15 22:00N 25°54' W 080°08'0 0.0
2017-Nov-15 21:30N 25°54' W 080°08'0 0.0
2017-Nov-15 21:00N 25°54' W 080°08'0 0.0
2017-Nov-15 20:30N 25°54' W 080°08'0 0.0
2017-Nov-15 20:00N 25°54' W 080°08'0 0.0
2017-Nov-15 19:30N 25°54' W 080°08'0 0.0
2017-Nov-15 19:00N 25°54' W 080°08'0 0.0
2017-Nov-15 18:27N 25°54' W 080°08'0 0.0
2017-Nov-15 17:51N 25°54' W 080°08'0 0.0
2017-Nov-15 17:30N 25°54' W 080°08'0 0.0
2017-Nov-15 17:00N 25°54' W 080°08'0 0.0
2017-Nov-15 16:24N 25°54' W 080°08'0 0.0
2017-Nov-15 15:54N 25°54' W 080°08'0 0.0
2017-Nov-15 15:30N 25°54' W 080°08'0 0.0
2017-Nov-15 15:00N 25°54' W 080°08'0 0.0
2017-Nov-15 14:24N 25°54' W 080°08'0 0.0
2017-Nov-15 14:00N 25°54' W 080°08'0 0.0
2017-Nov-15 13:30N 25°54' W 080°08'0 0.0
2017-Nov-15 12:57N 25°54' W 080°08'0 0.0
2017-Nov-15 12:30N 25°54' W 080°08'0 0.0
2017-Nov-15 12:00N 25°54' W 080°08'0 0.0
2017-Nov-15 11:27N 25°54' W 080°08'0 0.0
2017-Nov-15 11:00N 25°54' W 080°08'0 0.0
2017-Nov-15 10:27N 25°54' W 080°08'0 0.0
2017-Nov-15 10:00N 25°54' W 080°08'0 0.0
2017-Nov-15 09:30N 25°54' W 080°08'0 0.0
2017-Nov-15 09:00N 25°54' W 080°08'0 0.0
2017-Nov-15 08:30N 25°54' W 080°08'0 0.0
2017-Nov-15 08:00N 25°54' W 080°08'0 0.0
2017-Nov-15 07:30N 25°54' W 080°08'0 0.0
2017-Nov-15 07:00N 25°54' W 080°08'0 0.0
2017-Nov-15 06:30N 25°54' W 080°08'0 0.0
2017-Nov-15 06:00N 25°54' W 080°08'0 0.0
2017-Nov-15 05:30N 25°54' W 080°08'0 0.0
2017-Nov-15 05:00N 25°54' W 080°08'0 0.0
2017-Nov-15 04:30N 25°54' W 080°08'0 0.0
2017-Nov-15 03:57N 25°54' W 080°08'0 0.0
2017-Nov-15 03:30N 25°54' W 080°08'0 0.0
2017-Nov-15 02:54N 25°54' W 080°08'0 0.0
2017-Nov-15 02:27N 25°54' W 080°08'0 0.0
2017-Nov-15 01:57N 25°54' W 080°08'0 0.0
2017-Nov-15 01:24N 25°54' W 080°08'0 0.0
2017-Nov-15 00:54N 25°54' W 080°08'0 0.0
2017-Nov-15 00:18N 25°54' W 080°08'0 0.0
2017-Nov-14 23:57N 25°54' W 080°08'0 0.0
2017-Nov-14 23:27N 25°54' W 080°08'0 0.0
2017-Nov-14 22:57N 25°54' W 080°08'0 0.0
2017-Nov-14 22:27N 25°54' W 080°08'0 0.0
2017-Nov-14 21:57N 25°54' W 080°08'0 0.0
2017-Nov-14 21:30N 25°54' W 080°08'0 0.0
2017-Nov-14 21:00N 25°54' W 080°08'0 0.0
2017-Nov-14 20:30N 25°54' W 080°08'0 0.0
2017-Nov-14 20:00N 25°54' W 080°08'0 0.0
2017-Nov-14 19:30N 25°54' W 080°08'0 0.0
2017-Nov-14 19:00N 25°54' W 080°08'0 0.0
2017-Nov-14 18:30N 25°54' W 080°08'0 0.0
2017-Nov-14 18:00N 25°54' W 080°08'0 0.0
2017-Nov-14 17:30N 25°54' W 080°08'0 0.0
2017-Nov-14 17:00N 25°54' W 080°08'0 0.0
2017-Nov-14 16:30N 25°54' W 080°08'0 0.0
2017-Nov-14 16:00N 25°54' W 080°08'0 0.0
2017-Nov-14 15:30N 25°54' W 080°08'0 0.0
2017-Nov-14 15:00N 25°54' W 080°08'0 0.0
2017-Nov-14 14:21N 25°54' W 080°08'0 0.0
2017-Nov-14 13:51N 25°54' W 080°08'0 0.0
2017-Nov-14 13:27N 25°54' W 080°08'0 0.0
2017-Nov-14 12:54N 25°54' W 080°08'0 0.0
2017-Nov-14 12:24N 25°54' W 080°08'0 0.0
2017-Nov-14 11:57N 25°54' W 080°08'0 0.0
2017-Nov-14 11:24N 25°54' W 080°08'0 0.0
2017-Nov-14 10:54N 25°54' W 080°08'0 0.0
2017-Nov-14 10:27N 25°54' W 080°08'0 0.0
2017-Nov-14 09:57N 25°54' W 080°08'0 0.0
2017-Nov-14 09:27N 25°54' W 080°08'0 0.0
2017-Nov-14 08:57N 25°54' W 080°08'0 0.0
2017-Nov-14 08:30N 25°54' W 080°08'0 0.0
2017-Nov-14 07:57N 25°54' W 080°08'0 0.0
2017-Nov-14 07:30N 25°54' W 080°08'0 0.0
2017-Nov-14 07:00N 25°54' W 080°08'0 0.0
2017-Nov-14 06:30N 25°54' W 080°08'0 0.0
2017-Nov-14 06:00N 25°54' W 080°08'0 0.0
2017-Nov-14 05:30N 25°54' W 080°08'0 0.0
2017-Nov-14 05:00N 25°54' W 080°08'0 0.0
2017-Nov-14 04:30N 25°54' W 080°08'0 0.0
2017-Nov-14 04:00N 25°54' W 080°08'0 0.0
2017-Nov-14 03:30N 25°54' W 080°08'0 0.0
2017-Nov-14 03:00N 25°54' W 080°08'0 0.0
2017-Nov-14 02:30N 25°54' W 080°08'0 0.0
2017-Nov-14 01:51N 25°54' W 080°08'0 0.0
2017-Nov-14 01:30N 25°54' W 080°08'0 0.0
2017-Nov-14 01:00N 25°54' W 080°08'0 0.0
2017-Nov-14 00:21N 25°54' W 080°08'0 0.0
2017-Nov-13 23:57N 25°54' W 080°08'0 0.0
2017-Nov-13 23:24N 25°54' W 080°08'0 0.0
2017-Nov-13 23:00N 25°54' W 080°08'0 0.0
2017-Nov-13 22:24N 25°54' W 080°08'0 0.0
2017-Nov-13 21:54N 25°54' W 080°08'0 0.0
2017-Nov-13 02:00N 25°54' W 080°08'0 0.0
2017-Nov-13 01:30N 25°54' W 080°08'0 0.0
2017-Nov-13 01:00N 25°54' W 080°08'0 0.0
2017-Nov-13 00:30N 25°54' W 080°08'0 0.0
2017-Nov-13 00:00N 25°54' W 080°08'0 0.0
2017-Nov-12 23:30N 25°54' W 080°08'0 0.0
2017-Nov-12 23:00N 25°54' W 080°08'0 0.0
2017-Nov-12 22:30N 25°54' W 080°08'0 0.0
2017-Nov-12 22:00N 25°54' W 080°08'0 0.0
2017-Nov-12 21:30N 25°54' W 080°08'0 0.0
2017-Nov-12 21:00N 25°54' W 080°08'0 0.0
2017-Nov-12 20:27N 25°54' W 080°08'0 0.0
2017-Nov-12 20:00N 25°54' W 080°08'0 0.0
2017-Nov-12 19:30N 25°54' W 080°08'0 0.0
2017-Nov-12 18:54N 25°54' W 080°08'0 0.0
2017-Nov-12 18:24N 25°54' W 080°08'0 0.0
2017-Nov-12 17:54N 25°54' W 080°08'0 0.0
2017-Nov-12 17:27N 25°54' W 080°08'0 0.0
2017-Nov-12 16:54N 25°54' W 080°08'0 0.0
2017-Nov-12 16:30N 25°54' W 080°08'0 0.0
2017-Nov-12 15:57N 25°54' W 080°08'0 0.0
2017-Nov-12 15:27N 25°54' W 080°08'0 0.0
2017-Nov-12 14:57N 25°54' W 080°08'0 0.0
2017-Nov-12 14:30N 25°54' W 080°08'0 0.0
2017-Nov-12 14:00N 25°54' W 080°08'0 0.0
2017-Nov-12 13:30N 25°54' W 080°08'0 0.0
2017-Nov-12 13:00N 25°54' W 080°08'0 0.0
2017-Nov-12 12:30N 25°54' W 080°08'0 0.0
2017-Nov-12 12:00N 25°54' W 080°08'0 0.0
2017-Nov-12 11:30N 25°54' W 080°08'0 0.0
2017-Nov-12 11:00N 25°54' W 080°08'0 0.0
2017-Nov-12 10:30N 25°54' W 080°08'0 0.0
2017-Nov-12 10:00N 25°54' W 080°08'0 0.0
2017-Nov-12 09:30N 25°54' W 080°08'0 0.0
2017-Nov-12 09:00N 25°54' W 080°08'0 0.0
2017-Nov-12 08:30N 25°54' W 080°08'0 0.0
2017-Nov-12 08:00N 25°54' W 080°08'0 0.0
2017-Nov-12 07:30N 25°54' W 080°08'0 0.0
2017-Nov-12 07:00N 25°54' W 080°08'0 0.0
2017-Nov-12 06:30N 25°54' W 080°08'0 0.0
2017-Nov-12 05:51N 25°54' W 080°08'0 0.0
2017-Nov-12 05:24N 25°54' W 080°08'0 0.0
2017-Nov-12 05:00N 25°54' W 080°08'0 0.0
2017-Nov-12 04:24N 25°54' W 080°08'0 0.0
2017-Nov-12 03:54N 25°54' W 080°08'0 0.0
2017-Nov-12 03:24N 25°54' W 080°08'0 0.0
2017-Nov-12 02:51N 25°54' W 080°08'0 0.0
2017-Nov-12 02:27N 25°54' W 080°08'0 0.0
2017-Nov-12 02:00N 25°54' W 080°08'0 0.0
2017-Nov-12 01:27N 25°54' W 080°08'0 0.0
2017-Nov-12 00:57N 25°54' W 080°08'0 0.0
2017-Nov-12 00:27N 25°54' W 080°08'0 0.0
2017-Nov-12 00:00N 25°54' W 080°08'0 0.0
2017-Nov-11 23:30N 25°54' W 080°08'0 0.0
2017-Nov-11 23:00N 25°54' W 080°08'0 0.0
2017-Nov-11 22:30N 25°54' W 080°08'0 0.0
2017-Nov-11 22:00N 25°54' W 080°08'0 0.0
2017-Nov-11 21:30N 25°54' W 080°08'0 0.0
2017-Nov-11 20:57N 25°54' W 080°08'0 0.0
2017-Nov-11 20:30N 25°54' W 080°08'0 0.0
2017-Nov-11 20:00N 25°54' W 080°08'0 0.0
2017-Nov-11 19:30N 25°54' W 080°08'0 0.0
2017-Nov-11 19:00N 25°54' W 080°08'0 0.0
2017-Nov-11 18:30N 25°54' W 080°08'0 0.0
2017-Nov-11 18:00N 25°54' W 080°08'0 0.0
2017-Nov-11 17:30N 25°54' W 080°08'0 0.0
2017-Nov-11 16:51N 25°54' W 080°08'0 0.0
2017-Nov-11 16:21N 25°54' W 080°08'0 0.0
2017-Nov-11 16:00N 25°54' W 080°08'0 0.0
2017-Nov-11 15:24N 25°54' W 080°08'0 0.0
2017-Nov-11 14:54N 25°54' W 080°08'0 0.0
2017-Nov-11 14:30N 25°54' W 080°08'0 0.0
2017-Nov-11 14:00N 25°54' W 080°08'0 0.0
2017-Nov-11 13:24N 25°54' W 080°08'0 0.0
2017-Nov-11 12:57N 25°54' W 080°08'0 0.0
2017-Nov-11 12:30N 25°54' W 080°08'0 0.0
2017-Nov-11 12:00N 25°54' W 080°08'0 0.0
2017-Nov-11 11:27N 25°54' W 080°08'0 0.0
2017-Nov-11 11:00N 25°54' W 080°08'0 0.0
2017-Nov-11 10:30N 25°54' W 080°08'0 0.0
2017-Nov-11 10:00N 25°54' W 080°08'0 0.0
2017-Nov-11 09:30N 25°54' W 080°08'0 0.0
2017-Nov-11 09:00N 25°54' W 080°08'0 0.0
2017-Nov-11 08:30N 25°54' W 080°08'0 0.0
2017-Nov-11 08:00N 25°54' W 080°08'0 0.0
2017-Nov-11 07:30N 25°54' W 080°08'0 0.0
2017-Nov-11 07:00N 25°54' W 080°08'0 0.0
2017-Nov-11 06:30N 25°54' W 080°08'0 0.0
2017-Nov-11 06:00N 25°54' W 080°08'0 0.0
2017-Nov-11 05:30N 25°54' W 080°08'0 0.0
2017-Nov-11 05:00N 25°54' W 080°08'0 0.0
2017-Nov-11 04:21N 25°54' W 080°08'0 0.0
2017-Nov-11 04:00N 25°54' W 080°08'0 0.0
2017-Nov-11 03:30N 25°54' W 080°08'0 0.0
2017-Nov-11 02:54N 25°54' W 080°08'0 0.0
2017-Nov-11 02:24N 25°54' W 080°08'0 0.0
2017-Nov-11 02:00N 25°54' W 080°08'0 0.0
2017-Nov-11 01:30N 25°54' W 080°08'0 0.0
2017-Nov-11 01:00N 25°54' W 080°08'0 0.0
2017-Nov-11 00:24N 25°54' W 080°08'0 0.0
2017-Nov-10 23:54N 25°54' W 080°08'0 0.0
2017-Nov-10 23:24N 25°54' W 080°08'0 0.0
2017-Nov-10 22:57N 25°54' W 080°08'0 0.0
2017-Nov-10 22:27N 25°54' W 080°08'0 0.0
2017-Nov-10 22:00N 25°54' W 080°08'0 0.0
2017-Nov-10 21:30N 25°54' W 080°08'0 0.0
2017-Nov-10 20:57N 25°54' W 080°08'0 0.0
2017-Nov-10 20:27N 25°54' W 080°08'0 0.0
2017-Nov-10 20:00N 25°54' W 080°08'0 0.0
2017-Nov-10 19:30N 25°54' W 080°08'0 0.0
2017-Nov-10 19:00N 25°54' W 080°08'0 0.0
2017-Nov-10 18:30N 25°54' W 080°08'0 0.0
2017-Nov-10 18:00N 25°54' W 080°08'0 0.0
2017-Nov-10 17:30N 25°54' W 080°08'0 0.0
2017-Nov-10 16:57N 25°54' W 080°08'0 0.0
2017-Nov-10 16:30N 25°54' W 080°08'0 0.0
2017-Nov-10 16:00N 25°54' W 080°08'0 0.0
2017-Nov-10 15:30N 25°54' W 080°08'0 0.0
2017-Nov-10 15:00N 25°54' W 080°08'0 0.0
2017-Nov-10 14:30N 25°54' W 080°08'0 0.0
2017-Nov-10 14:00N 25°54' W 080°08'0 0.0
2017-Nov-10 13:21N 25°54' W 080°08'0 0.0
2017-Nov-10 12:51N 25°54' W 080°08'0 0.0
2017-Nov-10 12:21N 25°54' W 080°08'0 0.0
2017-Nov-10 12:00N 25°54' W 080°08'0 0.0
2017-Nov-10 11:24N 25°54' W 080°08'0 0.0
2017-Nov-10 10:54N 25°54' W 080°08'0 0.0
2017-Nov-10 10:24N 25°54' W 080°08'0 0.0
2017-Nov-10 09:54N 25°54' W 080°08'0 0.0
2017-Nov-10 09:24N 25°54' W 080°08'0 0.0
2017-Nov-10 08:57N 25°54' W 080°08'0 0.0
2017-Nov-10 08:27N 25°54' W 080°08'0 0.0
2017-Nov-10 07:57N 25°54' W 080°08'0 0.0
2017-Nov-10 07:27N 25°54' W 080°08'0 0.0
2017-Nov-10 06:57N 25°54' W 080°08'0 0.0
2017-Nov-10 06:27N 25°54' W 080°08'0 0.0
2017-Nov-10 06:00N 25°54' W 080°08'0 0.0
2017-Nov-10 05:30N 25°54' W 080°08'0 0.0
2017-Nov-10 04:45N 25°54' W 080°08'0 0.0
2017-Nov-10 04:27N 25°54' W 080°08'0 0.0
2017-Nov-10 04:00N 25°54' W 080°08'0 0.0
2017-Nov-10 03:27N 25°54' W 080°08'0 0.0
2017-Nov-10 03:00N 25°54' W 080°08'0 0.0
2017-Nov-10 02:30N 25°54' W 080°08'0 0.0
2017-Nov-10 02:00N 25°54' W 080°08'0 0.0
2017-Nov-10 01:30N 25°54' W 080°08'0 0.0
2017-Nov-10 01:00N 25°54' W 080°08'0 0.0
2017-Nov-10 00:30N 25°54' W 080°08'  

Dump ship's entire track history